Time;durP1;ratioP1;P1;durP2;ratioP2;P2;SDS_P1;SDS_P2;PMS_P1;PMS_P2;Temp;Humidity;BMP_temperature;BMP_pressure;BME280_temperature;BME280_humidity;BME280_pressure;Samples;Min_cycle;Max_cycle;Signal;HPM_P1;HPM_P2
2022/02/05 01:21:50;;;;;;;5.53;2.00;;;6.50;99.90;;;;;;5075417;28;20192;-91
2022/02/05 01:24:52;;;;;;;4.57;1.50;;;6.30;99.90;;;;;;5071732;28;20209;-91
2022/02/05 01:27:48;;;;;;;5.03;1.85;;;6.00;99.90;;;;;;5076748;28;20297;-91
2022/02/05 01:49:12;;;;;;;3.20;1.20;;;5.70;99.90;;;;;;5073699;28;20231;-90
2022/02/05 01:54:40;;;;;;;3.20;1.40;;;5.90;99.90;;;;;;5072139;28;20199;-90
2022/02/05 01:57:16;;;;;;;4.80;1.65;;;6.00;99.90;;;;;;5072445;28;20229;-91
2022/02/05 02:05:29;;;;;;;5.13;1.48;;;5.30;99.90;;;;;;5066116;28;20225;-90
2022/02/05 02:16:37;;;;;;;4.32;1.70;;;5.50;99.90;;;;;;5051671;28;20221;-91
2022/02/05 02:19:28;;;;;;;5.18;2.00;;;5.40;99.90;;;;;;5066606;28;20209;-90
2022/02/05 02:22:05;;;;;;;5.18;1.45;;;5.40;99.90;;;;;;5067736;28;20266;-92
2022/02/05 02:24:54;;;;;;;4.72;1.75;;;5.10;99.90;;;;;;5067065;28;20234;-91
2022/02/05 02:27:40;;;;;;;4.38;1.13;;;5.20;99.90;;;;;;5063283;28;20275;-89
2022/02/05 02:30:23;;;;;;;3.90;1.58;;;5.30;99.90;;;;;;5063613;28;20218;-90
2022/02/05 02:33:09;;;;;;;4.72;1.70;;;5.30;99.90;;;;;;5064454;28;20202;-89
2022/02/05 02:35:45;;;;;;;5.45;1.17;;;5.20;99.90;;;;;;5065117;28;20226;-90
2022/02/05 02:38:37;;;;;;;4.75;1.75;;;5.10;99.90;;;;;;5062846;28;20209;-91
2022/02/05 02:41:11;;;;;;;4.05;1.40;;;5.00;99.90;;;;;;5068732;28;20209;-91
2022/02/05 02:43:40;;;;;;;6.45;1.80;;;4.90;99.90;;;;;;5073434;28;20203;-91
2022/02/05 02:46:11;;;;;;;5.57;2.15;;;5.00;99.90;;;;;;5080237;28;20214;-90
2022/02/05 02:48:43;;;;;;;5.05;1.52;;;5.10;99.90;;;;;;5072271;28;20206;-91
2022/02/05 02:57:11;;;;;;;4.22;1.60;;;5.10;99.90;;;;;;5031340;28;20198;-90
2022/02/05 02:59:56;;;;;;;4.70;2.03;;;5.10;99.90;;;;;;5065243;28;20209;-91
2022/02/05 03:02:25;;;;;;;5.30;1.70;;;4.90;99.90;;;;;;5067076;28;20210;-90
2022/02/05 03:04:55;;;;;;;3.65;1.35;;;5.00;99.90;;;;;;5064040;28;20226;-90
2022/02/05 03:07:29;;;;;;;6.75;2.63;;;5.00;99.90;;;;;;5078798;28;20213;-89
2022/02/05 03:10:00;;;;;;;5.60;1.63;;;4.90;99.90;;;;;;5079603;28;20171;-89
2022/02/05 03:12:28;;;;;;;6.25;1.42;;;4.90;99.90;;;;;;5076743;28;20207;-87
2022/02/05 03:15:03;;;;;;;5.90;1.55;;;4.80;99.90;;;;;;5075655;28;20333;-89
2022/02/05 03:17:37;;;;;;;4.93;1.70;;;4.70;99.90;;;;;;5074543;28;20216;-88
2022/02/05 03:20:28;;;;;;;4.65;1.67;;;4.70;99.90;;;;;;5073536;28;20213;-88
2022/02/05 03:22:55;;;;;;;6.20;1.70;;;4.80;99.90;;;;;;5062729;28;20214;-89
2022/02/05 03:25:25;;;;;;;5.07;1.83;;;4.50;99.90;;;;;;5071169;28;20241;-88
2022/02/05 03:27:57;;;;;;;6.05;1.77;;;4.70;99.90;;;;;;5071368;28;20221;-89
2022/02/05 03:30:31;;;;;;;5.55;1.50;;;4.70;99.90;;;;;;5078181;28;20194;-89
2022/02/05 03:33:00;;;;;;;6.80;2.20;;;4.80;99.90;;;;;;5078565;28;20182;-88
2022/02/05 03:35:27;;;;;;;4.47;2.00;;;4.70;99.90;;;;;;5084466;22;20239;-86
2022/02/05 03:37:55;;;;;;;5.45;1.85;;;4.70;99.90;;;;;;5048787;28;20210;-86
2022/02/05 03:40:23;;;;;;;4.25;2.03;;;4.50;99.90;;;;;;5043156;28;20238;-86
2022/02/05 03:42:50;;;;;;;4.82;2.47;;;4.90;99.90;;;;;;5051736;28;20206;-86
2022/02/05 03:45:17;;;;;;;5.40;1.92;;;4.60;99.90;;;;;;5068332;28;20222;-87
2022/02/05 03:47:44;;;;;;;6.93;3.17;;;4.90;99.90;;;;;;5067195;28;20236;-87
2022/02/05 03:50:11;;;;;;;7.50;2.13;;;4.20;99.90;;;;;;5063746;28;20198;-86
2022/02/05 03:52:39;;;;;;;6.43;2.30;;;4.70;99.90;;;;;;5063885;28;20252;-86
2022/02/05 03:55:08;;;;;;;4.97;2.25;;;4.40;99.90;;;;;;5063687;28;20232;-86
2022/02/05 03:57:36;;;;;;;4.25;2.10;;;4.90;99.90;;;;;;5063363;28;20209;-86
2022/02/05 04:00:08;;;;;;;9.18;2.80;;;4.70;99.90;;;;;;5063586;28;20259;-86
2022/02/05 04:02:35;;;;;;;4.90;2.30;;;4.60;99.90;;;;;;5063371;28;20293;-86
2022/02/05 04:05:02;;;;;;;5.85;2.10;;;4.50;99.90;;;;;;5061901;28;20226;-85
2022/02/05 04:07:32;;;;;;;5.53;2.67;;;4.20;99.90;;;;;;5066313;28;20205;-86
2022/02/05 04:10:02;;;;;;;5.22;2.03;;;4.10;99.90;;;;;;5073963;28;20233;-85
2022/02/05 04:18:00;;;;;;;5.63;2.20;;;4.50;99.90;;;;;;5060900;28;20189;-86
2022/02/05 04:20:27;;;;;;;9.35;2.78;;;4.30;99.90;;;;;;5061577;28;20296;-86
2022/02/05 04:22:55;;;;;;;5.75;2.05;;;4.20;99.90;;;;;;5063920;28;20202;-87
2022/02/05 04:25:23;;;;;;;5.30;2.42;;;4.20;99.90;;;;;;5066102;28;20237;-87
2022/02/05 04:27:49;;;;;;;5.68;2.28;;;4.00;99.90;;;;;;5069862;28;20328;-86
2022/02/05 04:30:18;;;;;;;3.95;1.98;;;4.30;99.90;;;;;;5062661;28;20210;-86
2022/02/05 04:32:45;;;;;;;5.63;2.15;;;4.00;99.90;;;;;;5074962;28;20253;-86
2022/02/05 04:35:12;;;;;;;4.85;2.13;;;4.40;99.90;;;;;;5063728;28;20245;-87
2022/02/05 04:37:39;;;;;;;3.80;1.80;;;4.60;99.90;;;;;;5063209;28;20269;-87
2022/02/05 04:40:19;;;;;;;5.50;2.42;;;4.60;99.90;;;;;;5064950;28;20198;-86
2022/02/05 04:42:55;;;;;;;4.88;2.25;;;4.70;99.90;;;;;;5063798;28;20190;-86
2022/02/05 04:45:39;;;;;;;4.18;1.77;;;4.70;99.90;;;;;;5061962;28;20661;-86
2022/02/05 04:48:48;;;;;;;3.88;2.20;;;4.90;99.90;;;;;;5061042;28;20253;-86
2022/02/05 04:51:39;;;;;;;6.10;2.75;;;4.90;99.90;;;;;;5061299;28;20236;-86
2022/02/05 04:57:01;;;;;;;4.78;2.20;;;4.80;99.90;;;;;;5058051;28;20587;-86
2022/02/05 04:59:57;;;;;;;5.90;2.20;;;4.90;99.90;;;;;;5062482;28;20202;-87
2022/02/05 05:02:41;;;;;;;5.28;2.17;;;4.90;99.90;;;;;;5062097;28;20603;-86
2022/02/05 05:05:21;;;;;;;15.35;2.95;;;4.80;99.90;;;;;;5066252;28;20239;-86
2022/02/05 05:08:09;;;;;;;6.05;2.00;;;4.90;99.90;;;;;;5075227;28;20273;-86
2022/02/05 05:10:54;;;;;;;4.38;2.20;;;5.20;99.90;;;;;;5077119;28;20187;-86
2022/02/05 05:13:35;;;;;;;5.28;2.38;;;5.00;99.90;;;;;;5067320;28;20586;-87
2022/02/05 05:21:32;;;;;;;4.82;2.03;;;5.20;99.90;;;;;;5062719;28;20194;-86
2022/02/05 05:23:58;;;;;;;3.95;2.25;;;5.30;99.90;;;;;;5063463;28;20212;-86
2022/02/05 05:26:25;;;;;;;4.60;2.30;;;5.10;99.90;;;;;;5069122;28;20202;-87
2022/02/05 05:28:52;;;;;;;4.57;2.00;;;5.40;99.90;;;;;;5070850;28;20201;-86
2022/02/05 05:31:19;;;;;;;5.70;2.70;;;5.40;99.90;;;;;;5079950;28;20206;-86
2022/02/05 05:33:47;;;;;;;13.05;2.38;;;5.40;99.90;;;;;;5072404;28;20238;-85
2022/02/05 05:36:14;;;;;;;5.28;2.25;;;5.10;99.90;;;;;;5065290;28;20301;-85
2022/02/05 05:38:41;;;;;;;4.50;2.17;;;5.40;99.90;;;;;;5064691;28;20222;-86
2022/02/05 05:41:09;;;;;;;6.60;2.38;;;5.30;99.90;;;;;;5068013;28;20217;-85
2022/02/05 05:43:47;;;;;;;6.18;2.05;;;5.70;99.90;;;;;;5067726;28;20213;-85
2022/02/05 05:46:18;;;;;;;8.55;2.83;;;5.50;99.90;;;;;;5062442;28;20225;-86
2022/02/05 05:48:57;;;;;;;4.85;2.05;;;5.30;99.90;;;;;;5061802;28;20229;-86
2022/02/05 05:51:28;;;;;;;6.75;2.72;;;5.60;99.90;;;;;;5062413;28;20232;-86
2022/02/05 05:53:55;;;;;;;5.13;2.10;;;5.80;99.90;;;;;;5062480;28;20245;-86
2022/02/05 05:56:24;;;;;;;3.72;2.10;;;5.80;99.90;;;;;;5062392;28;20208;-86
2022/02/05 05:58:51;;;;;;;7.32;2.45;;;5.60;99.90;;;;;;5077138;28;20266;-86
2022/02/05 06:01:18;;;;;;;5.95;2.17;;;5.70;99.90;;;;;;5076629;28;20261;-87
2022/02/05 06:03:45;;;;;;;4.80;2.35;;;5.50;99.90;;;;;;5070537;28;20293;-86
2022/02/05 06:06:12;;;;;;;4.47;2.40;;;5.20;99.90;;;;;;5064404;28;20329;-86
2022/02/05 06:08:40;;;;;;;5.03;2.20;;;5.60;99.90;;;;;;5067661;28;20226;-86
2022/02/05 06:11:08;;;;;;;6.93;2.05;;;5.30;99.90;;;;;;5070920;28;20219;-86
2022/02/05 06:13:36;;;;;;;5.32;2.05;;;5.60;99.90;;;;;;5072577;28;20241;-86
2022/02/05 06:16:06;;;;;;;3.83;1.77;;;5.60;99.90;;;;;;5068603;28;20359;-86
2022/02/05 06:18:33;;;;;;;6.10;2.35;;;5.50;99.90;;;;;;5064634;28;20275;-86
2022/02/05 06:21:00;;;;;;;4.88;2.00;;;5.60;99.90;;;;;;5063210;28;20198;-87
2022/02/05 06:23:27;;;;;;;5.10;2.30;;;5.30;99.90;;;;;;5065728;28;20310;-86
2022/02/05 06:25:56;;;;;;;4.07;2.03;;;5.60;99.90;;;;;;5075142;28;20260;-86
2022/02/05 06:28:23;;;;;;;6.35;2.33;;;5.60;99.90;;;;;;5074297;28;20222;-86
2022/02/05 06:30:49;;;;;;;5.32;2.20;;;5.60;99.90;;;;;;5068645;28;20293;-86
2022/02/05 06:33:17;;;;;;;5.65;2.38;;;5.20;99.90;;;;;;5068356;28;20213;-86
2022/02/05 06:35:44;;;;;;;5.50;2.92;;;5.90;99.90;;;;;;5075375;28;20218;-85
2022/02/05 06:38:11;;;;;;;5.10;2.15;;;5.40;99.90;;;;;;5072533;28;20232;-86
2022/02/05 06:40:38;;;;;;;6.60;2.03;;;5.80;99.90;;;;;;5067566;28;20206;-86
2022/02/05 06:43:06;;;;;;;4.30;1.98;;;5.30;99.90;;;;;;5066131;28;20198;-86
2022/02/05 06:45:33;;;;;;;7.50;2.45;;;5.70;99.90;;;;;;5064318;28;20226;-86
2022/02/05 06:48:00;;;;;;;8.45;2.00;;;5.70;99.90;;;;;;5067388;28;20274;-86
2022/02/05 06:50:27;;;;;;;7.90;2.30;;;5.70;99.90;;;;;;5072910;28;20198;-86
2022/02/05 06:52:54;;;;;;;5.80;2.17;;;5.50;99.90;;;;;;5066678;28;20205;-86
2022/02/05 06:55:21;;;;;;;6.63;2.22;;;5.70;99.90;;;;;;5064904;28;20214;-86
2022/02/05 06:57:48;;;;;;;4.35;2.03;;;5.80;99.90;;;;;;5066407;28;20202;-85
2022/02/05 07:00:20;;;;;;;4.47;2.15;;;5.80;99.90;;;;;;5069885;28;20293;-86
2022/02/05 07:02:47;;;;;;;5.45;2.08;;;5.80;99.90;;;;;;5067777;28;20643;-86
2022/02/05 07:05:14;;;;;;;3.83;2.20;;;5.60;99.90;;;;;;5067754;28;20218;-86
2022/02/05 07:07:40;;;;;;;6.03;2.35;;;5.70;99.90;;;;;;5066102;28;20226;-85
2022/02/05 07:10:09;;;;;;;7.78;2.42;;;5.80;99.90;;;;;;5064737;28;20357;-87
2022/02/05 07:12:49;;;;;;;5.45;2.55;;;5.60;99.90;;;;;;5065791;28;20213;-87
2022/02/05 07:15:22;;;;;;;5.47;2.92;;;5.40;99.90;;;;;;5065073;28;20261;-87
2022/02/05 07:17:58;;;;;;;5.10;2.42;;;5.70;99.90;;;;;;5064916;28;20186;-87
2022/02/05 07:20:39;;;;;;;8.23;3.10;;;5.80;99.90;;;;;;5067095;28;20212;-87
2022/02/05 07:23:32;;;;;;;10.52;2.65;;;5.30;99.90;;;;;;5073470;28;20206;-85
2022/02/05 07:29:16;;;;;;;5.35;3.00;;;5.80;99.90;;;;;;5079516;28;20236;-87
2022/02/05 07:31:51;;;;;;;4.65;2.40;;;5.80;99.90;;;;;;5065521;28;20202;-87
2022/02/05 07:34:23;;;;;;;5.57;2.58;;;5.70;99.90;;;;;;5064252;28;20284;-87
2022/02/05 07:36:53;;;;;;;6.20;2.00;;;5.70;99.90;;;;;;5064129;28;20214;-87
2022/02/05 07:39:22;;;;;;;6.15;2.97;;;5.70;99.90;;;;;;5062679;28;20217;-87
2022/02/05 07:41:49;;;;;;;6.93;2.67;;;5.70;99.90;;;;;;5065527;28;20206;-87
2022/02/05 07:44:19;;;;;;;9.55;3.10;;;5.50;99.90;;;;;;5064823;28;20265;-87
2022/02/05 07:46:51;;;;;;;6.28;2.50;;;5.70;99.90;;;;;;5063794;28;20305;-87
2022/02/05 07:49:19;;;;;;;4.15;2.20;;;5.70;99.90;;;;;;5065882;28;20241;-87
2022/02/05 07:51:49;;;;;;;5.93;2.47;;;5.40;99.90;;;;;;5071669;28;20205;-87
2022/02/05 07:54:16;;;;;;;3.70;2.60;;;5.70;99.90;;;;;;5075607;28;20278;-86
2022/02/05 07:56:44;;;;;;;5.35;2.50;;;5.20;99.90;;;;;;5077398;28;20205;-86
2022/02/05 07:59:12;;;;;;;5.95;2.40;;;5.50;99.90;;;;;;5068141;28;20226;-85
2022/02/05 08:01:39;;;;;;;5.28;1.95;;;5.50;99.90;;;;;;5067080;28;20220;-86
2022/02/05 08:04:08;;;;;;;6.00;2.42;;;5.50;99.90;;;;;;5066275;28;20206;-86
2022/02/05 08:06:35;;;;;;;4.30;2.08;;;5.30;99.90;;;;;;5067886;28;20264;-86
2022/02/05 08:09:11;;;;;;;4.65;2.00;;;5.60;99.90;;;;;;5066824;28;20221;-86
2022/02/05 08:11:41;;;;;;;5.63;2.58;;;5.30;99.90;;;;;;5067018;28;20198;-86
2022/02/05 08:14:10;;;;;;;5.45;2.72;;;5.70;99.90;;;;;;5066056;28;20725;-86
2022/02/05 08:16:51;;;;;;;5.28;2.10;;;5.60;99.90;;;;;;5064186;28;20206;-85
2022/02/05 08:19:20;;;;;;;5.13;2.80;;;5.70;99.90;;;;;;5070768;28;20262;-85
2022/02/05 08:21:47;;;;;;;5.70;2.13;;;5.70;99.90;;;;;;5075991;28;20194;-87
2022/02/05 08:24:14;;;;;;;7.90;2.53;;;5.80;99.90;;;;;;5073796;28;20230;-86
2022/02/05 08:26:41;;;;;;;6.57;2.78;;;5.50;99.90;;;;;;5066622;28;20226;-87
2022/02/05 08:29:10;;;;;;;6.40;2.30;;;5.80;99.90;;;;;;5069431;28;20667;-89
2022/02/05 08:31:37;;;;;;;6.63;3.78;;;5.80;99.90;;;;;;5068674;28;20271;-85
2022/02/05 08:34:04;;;;;;;5.55;2.25;;;5.70;99.90;;;;;;5066820;28;20273;-85
2022/02/05 08:36:41;;;;;;;9.30;2.30;;;5.50;99.90;;;;;;5065261;28;20305;-84
2022/02/05 08:39:10;;;;;;;7.10;2.80;;;5.40;99.90;;;;;;5067706;28;20186;-86
2022/02/05 08:41:44;;;;;;;3.70;1.65;;;5.90;99.90;;;;;;5070243;28;20269;-87
2022/02/05 08:44:13;;;;;;;6.53;2.22;;;5.90;99.90;;;;;;5067749;28;20216;-87
2022/02/05 08:46:41;;;;;;;3.60;1.80;;;5.90;99.90;;;;;;5067001;28;20206;-86
2022/02/05 08:49:11;;;;;;;5.18;2.08;;;6.00;99.90;;;;;;5066170;28;20228;-86
2022/02/05 08:51:39;;;;;;;6.43;2.50;;;6.10;99.90;;;;;;5066031;28;20190;-86
2022/02/05 08:54:06;;;;;;;7.45;4.40;;;6.10;99.90;;;;;;5066940;28;20213;-86
2022/02/05 08:56:33;;;;;;;7.82;2.08;;;6.20;99.90;;;;;;5066187;28;20273;-86
2022/02/05 08:59:01;;;;;;;9.98;2.78;;;6.20;99.90;;;;;;5066482;28;20194;-86
2022/02/05 09:01:32;;;;;;;6.72;2.00;;;6.00;99.90;;;;;;5065844;28;20229;-86
2022/02/05 09:04:16;;;;;;;5.57;1.77;;;6.30;99.90;;;;;;5065915;28;20626;-86
2022/02/05 09:06:49;;;;;;;5.35;1.80;;;5.90;99.90;;;;;;5063598;28;20319;-87
2022/02/05 09:09:32;;;;;;;6.32;2.30;;;6.50;99.90;;;;;;5064595;28;20246;-87
2022/02/05 09:12:17;;;;;;;7.55;2.20;;;6.50;99.90;;;;;;5064974;28;20670;-87
2022/02/05 09:14:51;;;;;;;5.00;1.90;;;6.10;99.90;;;;;;5063768;28;20242;-87
2022/02/05 09:17:20;;;;;;;7.50;2.05;;;6.60;99.90;;;;;;5065741;28;20215;-87
2022/02/05 09:19:48;;;;;;;5.35;2.20;;;6.60;99.90;;;;;;5070101;28;20210;-86
2022/02/05 09:22:21;;;;;;;3.25;1.33;;;6.60;99.90;;;;;;5066316;28;20210;-87
2022/02/05 09:24:48;;;;;;;4.32;1.90;;;6.80;99.90;;;;;;5061109;28;20313;-87
2022/02/05 09:27:18;;;;;;;6.95;2.55;;;6.80;99.90;;;;;;5064646;28;20216;-86
2022/02/05 09:29:59;;;;;;;8.65;2.13;;;6.60;99.90;;;;;;5066902;28;20281;-87
2022/02/05 09:32:26;;;;;;;7.00;2.47;;;6.70;99.90;;;;;;5072094;28;20202;-86
2022/02/05 09:35:10;;;;;;;6.20;2.95;;;7.00;99.90;;;;;;5096012;22;20231;-90
2022/02/05 09:37:41;;;;;;;4.35;1.75;;;6.90;99.90;;;;;;5042499;28;20214;-91
2022/02/05 09:42:53;;;;;;;5.47;1.60;;;7.10;99.90;;;;;;5055253;28;20261;-89
2022/02/05 09:45:32;;;;;;;7.70;1.95;;;7.30;99.90;;;;;;5063796;28;20217;-89
2022/02/05 09:48:10;;;;;;;5.50;1.70;;;7.30;99.90;;;;;;5063382;28;20321;-91
2022/02/05 09:50:42;;;;;;;3.80;1.35;;;7.40;99.90;;;;;;5060084;28;20237;-89
2022/02/05 09:53:17;;;;;;;4.72;1.80;;;7.30;99.90;;;;;;5061673;28;20209;-90
2022/02/05 09:55:58;;;;;;;8.30;1.83;;;7.30;99.90;;;;;;5069536;28;20293;-91
2022/02/05 09:58:34;;;;;;;6.43;3.13;;;7.30;99.90;;;;;;5076180;28;20225;-91
2022/02/05 10:01:14;;;;;;;8.00;2.30;;;7.40;99.90;;;;;;5072631;28;20201;-90
2022/02/05 10:03:53;;;;;;;6.85;1.92;;;7.40;99.90;;;;;;5072390;28;20244;-90
2022/02/05 10:06:34;;;;;;;5.25;2.35;;;7.40;99.90;;;;;;5075139;28;20218;-91
2022/02/05 10:09:16;;;;;;;4.75;1.85;;;7.50;99.90;;;;;;5070676;28;20281;-90
2022/02/05 10:12:07;;;;;;;7.75;1.60;;;7.40;99.90;;;;;;5069265;28;20276;-91
2022/02/05 10:14:37;;;;;;;7.47;1.92;;;7.40;99.90;;;;;;5074777;28;20206;-90
2022/02/05 10:20:42;;;;;;;6.43;1.60;;;7.40;99.90;;;;;;5069035;28;20173;-93
2022/02/05 10:23:19;;;;;;;10.32;2.50;;;7.50;99.90;;;;;;5071251;28;20204;-91
2022/02/05 10:25:58;;;;;;;10.52;2.00;;;7.60;99.90;;;;;;5078795;28;20600;-91
2022/02/05 10:28:44;;;;;;;3.83;1.40;;;7.70;99.90;;;;;;5073952;28;20238;-90
2022/02/05 10:34:14;;;;;;;6.97;1.88;;;7.80;99.90;;;;;;5063534;28;20210;-90
2022/02/05 10:37:13;;;;;;;7.00;2.50;;;7.90;99.90;;;;;;5065911;28;20250;-91
2022/02/05 10:40:06;;;;;;;4.47;1.60;;;8.00;99.90;;;;;;5064503;28;20260;-91
2022/02/05 10:43:02;;;;;;;5.80;1.60;;;8.00;99.90;;;;;;5065948;28;20240;-92
2022/02/05 10:46:00;;;;;;;10.35;2.60;;;8.10;99.90;;;;;;5065093;28;20701;-92
2022/02/05 10:48:31;;;;;;;5.30;1.85;;;8.20;99.90;;;;;;5042710;28;20226;-91
2022/02/05 10:51:20;;;;;;;7.25;2.45;;;8.30;99.90;;;;;;5069129;28;20199;-90
2022/02/05 10:54:17;;;;;;;7.95;1.90;;;8.50;99.90;;;;;;5067072;28;20260;-91
2022/02/05 10:57:25;;;;;;;5.43;1.73;;;8.60;99.90;;;;;;5067435;28;20298;-90
2022/02/05 11:05:52;;;;;;;5.20;1.40;;;8.70;99.90;;;;;;5075871;28;20217;-89
2022/02/05 11:08:39;;;;;;;5.32;1.58;;;8.70;99.80;;;;;;5074016;28;20223;-91
2022/02/05 11:21:48;;;;;;;5.03;1.30;;;9.10;98.70;;;;;;4949239;28;20254;-91
2022/02/05 11:31:35;;;;;;;7.53;1.53;;;9.20;97.70;;;;;;4933849;28;20451;-91
2022/02/05 11:44:45;;;;;;;4.50;1.65;;;9.40;95.60;;;;;;5008279;28;20216;-91
2022/02/05 12:11:48;;;;;;;8.43;1.70;;;9.30;94.60;;;;;;5230000;22;20237;-91
2022/02/05 12:28:25;;;;;;;;;;;;;;;;;;;;;
2022/02/05 12:33:59;;;;;;;5.07;1.30;;;9.40;92.90;;;;;;5028867;28;20461;-92
2022/02/05 12:36:54;;;;;;;4.00;1.33;;;9.50;93.20;;;;;;5036104;28;20466;-92
2022/02/05 12:42:48;;;;;;;;;;;;;;;;;;;;;
2022/02/05 12:45:38;;;;;;;3.10;0.70;;;9.50;92.90;;;;;;5086117;22;20862;-91
2022/02/05 12:51:19;;;;;;;2.93;1.00;;;9.50;92.50;;;;;;5052210;28;20460;-92
2022/02/05 12:54:14;;;;;;;7.25;1.05;;;9.30;92.50;;;;;;5051213;28;20454;-91
2022/02/05 12:57:12;;;;;;;5.13;0.95;;;9.20;92.80;;;;;;5069774;28;20249;-92
2022/02/05 13:09:53;;;;;;;3.15;1.17;;;9.40;92.70;;;;;;5055583;28;20488;-92
2022/02/05 15:38:43;;;;;;;5.53;1.80;;;9.10;93.20;;;;;;1202760;26;20230;-88
2022/02/05 15:54:15;;;;;;;5.80;1.80;;;8.70;93.90;;;;;;5050341;28;20194;-87
2022/02/05 15:57:31;;;;;;;;;;;;;;;;;;;;;
2022/02/05 16:00:22;;;;;;;6.07;2.13;;;8.80;94.20;;;;;;5053709;28;20234;-89
2022/02/05 16:02:56;;;;;;;4.00;1.20;;;8.80;94.40;;;;;;5055379;28;20450;-89
2022/02/05 16:05:32;;;;;;;4.65;1.35;;;8.70;94.50;;;;;;5049264;28;20219;-87
2022/02/05 16:08:31;;;;;;;7.20;2.07;;;8.60;94.80;;;;;;5046785;28;20202;-88
2022/02/05 16:14:47;;;;;;;4.10;1.90;;;8.50;95.10;;;;;;5052372;28;20652;-87
2022/02/05 16:24:21;;;;;;;8.05;2.55;;;8.30;95.90;;;;;;4996137;28;20212;-86
2022/02/05 16:27:03;;;;;;;7.65;2.22;;;8.30;96.10;;;;;;5053924;28;20268;-87
2022/02/05 16:29:43;;;;;;;3.92;1.55;;;8.20;96.30;;;;;;5049410;28;20226;-87
2022/02/05 16:32:12;;;;;;;4.32;1.60;;;8.10;96.50;;;;;;5045754;28;20579;-86
2022/02/05 16:34:53;;;;;;;6.15;1.75;;;8.20;96.50;;;;;;5052291;28;20230;-86
2022/02/05 16:37:29;;;;;;;5.13;1.83;;;8.20;96.60;;;;;;5045506;28;20206;-88
2022/02/05 16:49:53;;;;;;;9.80;3.70;;;8.10;97.20;;;;;;4982822;28;20295;-87
2022/02/05 16:56:07;;;;;;;6.30;2.17;;;7.80;97.60;;;;;;5047218;28;20266;-87
2022/02/05 16:58:48;;;;;;;6.65;2.00;;;7.90;97.80;;;;;;5048806;28;20221;-87
2022/02/05 17:01:16;;;;;;;5.07;1.98;;;7.90;98.10;;;;;;5047520;28;20270;-88
2022/02/05 17:03:47;;;;;;;7.90;2.40;;;7.80;98.20;;;;;;5051288;28;20263;-88
2022/02/05 17:06:18;;;;;;;41.00;9.45;;;7.80;98.60;;;;;;5049275;28;20219;-87
2022/02/05 17:08:57;;;;;;;6.97;2.17;;;7.70;98.50;;;;;;5049152;28;20194;-88
2022/02/05 17:11:34;;;;;;;8.93;2.15;;;7.80;98.50;;;;;;5048137;28;20286;-88
2022/02/05 17:14:02;;;;;;;6.95;2.50;;;7.90;98.50;;;;;;5049036;28;20258;-87
2022/02/05 17:16:33;;;;;;;10.20;3.17;;;7.80;98.40;;;;;;5048623;28;20253;-87
2022/02/05 17:19:04;;;;;;;6.57;3.00;;;7.90;98.50;;;;;;5050410;28;20203;-87
2022/02/05 17:21:39;;;;;;;12.05;5.80;;;7.90;98.60;;;;;;5050752;28;20278;-89
2022/02/05 17:24:14;;;;;;;19.55;7.95;;;7.90;98.60;;;;;;5057731;28;20187;-87
2022/02/05 17:26:44;;;;;;;13.57;6.78;;;7.90;98.60;;;;;;5051439;28;20245;-88
2022/02/05 17:29:13;;;;;;;9.10;3.75;;;7.70;98.90;;;;;;5051548;28;20225;-88
2022/02/05 17:31:41;;;;;;;13.38;3.30;;;7.70;99.10;;;;;;5052039;28;20198;-88
2022/02/05 17:34:10;;;;;;;6.45;3.28;;;7.70;99.10;;;;;;5056331;28;20267;-88
2022/02/05 17:36:42;;;;;;;7.97;3.03;;;7.60;99.30;;;;;;5054733;28;20329;-87
2022/02/05 17:39:16;;;;;;;11.00;3.97;;;7.60;99.40;;;;;;5059680;28;20225;-87
2022/02/05 17:41:49;;;;;;;7.82;2.90;;;7.20;99.10;;;;;;5055896;28;20238;-89
2022/02/05 17:44:25;;;;;;;5.95;3.20;;;7.60;99.60;;;;;;5054771;28;20229;-87
2022/02/05 17:47:04;;;;;;;7.10;3.33;;;7.50;99.90;;;;;;5058501;28;20218;-88
2022/02/05 17:49:31;;;;;;;7.75;3.40;;;7.60;99.90;;;;;;5056802;28;20221;-89
2022/02/05 17:52:07;;;;;;;7.65;3.90;;;7.50;99.90;;;;;;5054771;28;20203;-88
2022/02/05 17:54:40;;;;;;;8.80;3.63;;;7.50;99.90;;;;;;5054268;28;20210;-90
2022/02/05 17:57:16;;;;;;;6.10;3.40;;;7.40;99.90;;;;;;5054208;28;20231;-88
2022/02/05 17:59:53;;;;;;;8.38;3.83;;;7.40;99.90;;;;;;5055510;28;20207;-88
2022/02/05 18:02:22;;;;;;;9.52;3.78;;;7.40;99.90;;;;;;5057594;28;20191;-88
2022/02/05 18:04:54;;;;;;;11.23;5.72;;;7.00;99.90;;;;;;5059255;28;20197;-88
2022/02/05 18:07:39;;;;;;;11.50;4.22;;;7.30;99.90;;;;;;5056370;28;20202;-88
2022/02/05 18:10:28;;;;;;;8.77;3.55;;;7.30;99.90;;;;;;5053199;28;20227;-87
2022/02/05 18:13:05;;;;;;;8.43;4.43;;;7.30;99.90;;;;;;5053132;28;20217;-88
2022/02/05 18:15:35;;;;;;;7.35;3.90;;;7.40;99.90;;;;;;5050246;28;20236;-88
2022/02/05 18:18:06;;;;;;;6.65;3.67;;;7.30;99.90;;;;;;5052532;28;20206;-87
2022/02/05 18:20:42;;;;;;;6.97;3.13;;;7.40;99.90;;;;;;5050378;28;20198;-88
2022/02/05 18:23:44;;;;;;;8.55;4.05;;;7.40;99.90;;;;;;5048582;28;20207;-87
2022/02/05 18:26:19;;;;;;;8.50;4.05;;;7.30;99.90;;;;;;5049986;28;20265;-88
2022/02/05 18:28:48;;;;;;;6.95;4.03;;;7.20;99.90;;;;;;5050677;28;20659;-88
2022/02/05 18:31:18;;;;;;;12.32;6.30;;;7.20;99.90;;;;;;5047945;28;20583;-88
2022/02/05 18:33:46;;;;;;;11.00;4.15;;;7.20;99.90;;;;;;5048183;28;20218;-88
2022/02/05 18:36:13;;;;;;;12.25;6.07;;;7.10;99.90;;;;;;5049266;28;20675;-88
2022/02/05 18:38:42;;;;;;;9.77;4.55;;;7.10;99.90;;;;;;5048522;28;20200;-87
2022/02/05 18:41:31;;;;;;;;;;;;;;;;;;;;;
2022/02/05 19:10:41;;;;;;;10.10;5.13;;;6.90;99.90;;;;;;5057245;28;20262;-89
2022/02/05 19:19:21;;;;;;;15.05;5.43;;;6.40;99.90;;;;;;5054290;28;20221;-88
2022/02/05 19:25:33;;;;;;;10.93;5.13;;;6.30;99.90;;;;;;4998310;28;20259;-87
2022/02/05 19:28:34;;;;;;;10.27;5.35;;;6.70;99.90;;;;;;5044444;28;20198;-87
2022/02/05 19:45:10;;;;;;;11.10;5.18;;;6.50;99.90;;;;;;4918790;29;20237;-89
2022/02/05 19:48:55;;;;;;;9.23;5.85;;;6.50;99.90;;;;;;4952061;29;20229;-88
2022/02/05 20:16:06;;;;;;;11.13;6.13;;;6.30;99.90;;;;;;4614187;26;20271;-87
2022/02/05 20:19:20;;;;;;;;;;;;;;;;;;;;;
2022/02/05 20:28:04;;;;;;;11.15;5.95;;;6.20;99.90;;;;;;5754204;22;20230;-89
2022/02/05 20:34:33;;;;;;;9.02;4.60;;;6.00;99.90;;;;;;5041571;28;20198;-87
2022/02/05 20:51:38;;;;;;;;;;;;;;;;;;;;;
